Station: Tennant Creek  

  Atmospheric Gas Attenuation - ITU Rec 676-11   ----------------- dB/100km -----------------
Date Time Temp RH % AH g/m3 Dew Point Wind Direction Speed kph Gust kph Barometer mB Rainfall Since 9am 24GHz 47GHz 76GHz 122GHz 134GHz 241GHz
08/05 12:00 20.8 39 7.06 6.4 32 46 1018.9 0 16.0 21.9 31.2 81.6 72.4 248.1
08/05 11:50 20.8 39 7.06 6.4 28 39 1019 0 16.0 21.9 31.2 81.6 72.4 248.1
08/05 11:40 20.6 39 6.98 6.2 39 48 1019.2 0 15.9 21.9 31.0 81.1 71.7 245.6
08/05 11:30 20.6 40 7.16 6.5 35 50 1019.4 0 16.2 22.1 31.7 82.7 73.7 252.8
08/05 11:20 20.9 40 7.28 6.8 32 37 1019.7 0 16.5 22.2 32.0 83.6 74.9 256.8
08/05 11:10 20.3 40 7.03 6.3 37 48 1019.7 0 16.0 22.0 31.3 81.9 72.5 248.6
08/05 11:00 20.8 40 7.24 6.7 41 54 1019.7 0 16.4 22.2 31.9 83.3 74.5 255.5
08/05 10:50 20.5 42 7.47 7.2 37 43 1019.7 0 16.9 22.6 32.8 85.8 77.4 265.8
08/05 10:40 19.4 44 7.34 6.8 33 39 1019.9 0 16.7 22.7 32.8 85.7 77.0 264.1
08/05 10:30 20 42 7.26 6.7 39 52 1019.9 0 16.5 22.4 32.3 84.3 75.5 258.9
08/05 10:20 18.8 44 7.09 6.3 41 50 1020.1 0 16.2 22.5 32.2 84.0 74.6 255.7
08/05 10:10 18.8 43 6.92 6 46 54 1020.1 0 15.8 22.3 31.5 82.4 72.6 248.8
08/05 10:00 19.9 44 7.56 7.3 39 57 1019.9 0 17.1 22.9 33.4 87.3 79.1 271.5
08/05 09:50 18.8 43 6.92 6 46 56 1019.9 0 15.8 22.2 31.5 82.4 72.6 248.7
08/05 09:40 19 44 7.17 6.5 44 52 1019.9 0 16.3 22.6 32.3 84.5 75.4 258.4
08/05 09:30 18.9 46 7.45 7 43 61 1019.7 0 16.9 23.0 33.4 87.3 78.8 270.2
08/05 09:20 18 47 7.22 6.5 43 52 1019.8 0 16.5 22.9 32.9 86.0 76.9 263.6
08/05 09:10 17.5 47 7.01 6.1 35 48 1019.7 0 16.0 22.7 32.4 84.5 74.9 256.4
08/05 09:00 18.3 46 7.19 6.5 37 52 1019.5 0 16.4 22.7 32.7 85.4 76.2 261.3
08/05 08:50 18.1 47 7.26 6.6 43 56 1019.6 0 16.6 22.9 33.0 86.3 77.3 264.9
08/05 08:40 17.6 48 7.2 6.5 37 50 1019.4 0 16.4 22.9 33.0 86.2 77.0 264.0
08/05 08:30 17.2 49 7.18 6.4 39 54 1019.3 0 16.4 23.0 33.1 86.5 77.2 264.5
08/05 08:20 16.8 49 7.01 6 46 52 1019.4 0 16.1 22.9 32.6 85.3 75.5 258.6
08/05 08:10 16.8 49 7.01 6 37 56 1019.2 0 16.1 22.8 32.6 85.2 75.5 258.6
08/05 08:00 16.6 50 7.06 6.1 35 46 1019.2 0 16.2 23.0 32.9 85.9 76.3 261.3
08/05 07:50 16.5 50 7.02 6.1 33 43 1019.1 0 16.1 22.9 32.8 85.6 75.9 259.9
08/05 07:40 16.6 50 7.06 6.1 32 37 1019 0 16.2 23.0 32.9 85.9 76.3 261.3
08/05 07:30 16.3 50 6.94 5.9 30 46 1019 0 15.9 22.9 32.6 85.1 75.1 257.2
08/05 07:20 16 50 6.81 5.6 33 39 1018.8 0 15.7 22.7 32.2 84.1 73.8 252.6
08/05 07:10 16 50 6.81 5.6 32 37 1018.6 0 15.7 22.7 32.2 84.1 73.8 252.5
08/05 07:00 15.9 50 6.77 5.5 30 41 1018.3 0 15.6 22.7 32.1 83.8 73.4 251.1
08/05 06:50 15.9 50 6.77 5.5 32 39 1018.4 0 15.6 22.7 32.1 83.8 73.4 251.1
08/05 06:40 15.9 50 6.77 5.5 32 37 1018.3 0 15.6 22.7 32.1 83.8 73.4 251.1
08/05 06:30 15.9 50 6.77 5.5 30 41 1018.2 0 15.6 22.7 32.1 83.7 73.4 251.1
08/05 06:20 16 49 6.68 5.3 28 32 1018.3 0 15.4 22.5 31.7 82.8 72.2 247.0
08/05 06:10 16.1 49 6.72 5.4 30 41 1018.2 0 15.5 22.6 31.8 83.1 72.6 248.4
08/05 06:00 16.1 49 6.72 5.4 30 37 1018.1 0 15.5 22.6 31.8 83.0 72.6 248.3
08/05 05:50 16.2 48 6.62 5.2 30 35 1018.2 0 15.3 22.4 31.4 82.0 71.3 243.9
08/05 05:40 16.2 48 6.62 5.2 32 39 1018.2 0 15.3 22.4 31.4 82.0 71.3 243.9
08/05 05:30 16.3 48 6.66 5.3 32 41 1018.1 0 15.4 22.4 31.5 82.3 71.7 245.2
08/05 05:20 16.4 47 6.56 5.1 33 43 1018.1 0 15.1 22.2 31.1 81.2 70.4 240.7
08/05 05:10 16.5 47 6.6 5.2 32 41 1018 0 15.2 22.3 31.2 81.5 70.8 242.1
08/05 05:00 16.5 47 6.6 5.2 28 44 1017.9 0 15.2 22.3 31.2 81.5 70.8 242.1
08/05 04:50 16.5 46 6.46 4.9 28 35 1018.1 0 14.9 22.1 30.7 80.1 69.2 236.3
08/05 04:40 16.5 46 6.46 4.9 26 32 1018.1 0 14.9 22.1 30.7 80.1 69.2 236.3
08/05 04:30 16.5 46 6.46 4.9 30 50 1018 0 14.9 22.1 30.7 80.1 69.2 236.3
08/05 04:20 16.5 46 6.46 4.9 24 30 1018.1 0 14.9 22.1 30.7 80.1 69.2 236.3
08/05 04:10 16.5 45 6.32 4.5 33 41 1018.2 0 14.6 21.9 30.2 78.8 67.5 230.5
08/05 04:00 16.5 45 6.32 4.5 30 39 1018.2 0 14.6 21.9 30.2 78.8 67.5 230.5
08/05 03:50 16.4 45 6.28 4.4 26 32 1018.3 0 14.6 21.8 30.1 78.5 67.1 229.2
08/05 03:40 16.4 45 6.28 4.4 30 33 1018.3 0 14.6 21.8 30.1 78.5 67.1 229.2
08/05 03:30 16.4 45 6.28 4.4 26 35 1018.1 0 14.6 21.8 30.1 78.5 67.1 229.2
08/05 03:20 16.5 44 6.18 4.2 30 37 1018.2 0 14.3 21.7 29.7 77.5 65.9 224.8
08/05 03:10 16.6 44 6.22 4.3 30 33 1018.2 0 14.4 21.7 29.8 77.8 66.3 226.2
08/05 03:00 16.6 44 6.22 4.3 28 37 1018.2 0 14.4 21.7 29.8 77.8 66.3 226.2
08/05 02:50 16.7 44 6.25 4.4 30 33 1018.3 0 14.5 21.7 29.9 78.0 66.5 227.1
08/05 02:40 16.8 44 6.29 4.5 32 35 1018.3 0 14.6 21.8 30.0 78.3 66.9 228.5
08/05 02:30 16.7 44 6.25 4.4 30 39 1018.2 0 14.5 21.7 29.9 78.0 66.5 227.1
08/05 02:20 16.9 43 6.18 4.3 26 33 1018.4 0 14.3 21.6 29.6 77.1 65.6 223.7
08/05 02:10 16.9 43 6.18 4.3 26 30 1018.4 0 14.3 21.6 29.6 77.1 65.6 223.7
08/05 02:00 17 43 6.22 4.3 30 41 1018.2 0 14.4 21.6 29.7 77.4 65.9 225.0
08/05 01:50 17.1 43 6.26 4.4 22 28 1018.4 0 14.5 21.7 29.8 77.7 66.3 226.4
08/05 01:40 17.1 43 6.26 4.4 26 33 1018.4 0 14.5 21.7 29.8 77.7 66.3 226.4
08/05 01:30 17.1 43 6.26 4.4 28 37 1018.4 0 14.5 21.7 29.8 77.7 66.3 226.4
08/05 01:20 17 44 6.37 4.7 24 30 1018.5 0 14.7 21.8 30.2 78.8 67.7 231.2
08/05 01:10 17.2 43 6.3 4.5 26 32 1018.6 0 14.6 21.7 29.9 78.0 66.7 227.8
08/05 01:00 17.4 43 6.37 4.7 24 33 1018.6 0 14.7 21.8 30.1 78.5 67.4 230.1
08/05 00:50 17.4 44 6.52 5 26 32 1018.7 0 15.0 22.0 30.6 79.9 69.1 236.3
08/05 00:40 17.6 43 6.45 4.9 28 32 1018.7 0 14.9 21.8 30.3 79.0 68.1 232.8
08/05 00:30 17.9 43 6.56 5.2 24 33 1018.8 0 15.1 21.9 30.6 79.8 69.2 236.5
08/05 00:20 17.9 43 6.56 5.2 20 26 1018.9 0 15.1 21.9 30.6 79.8 69.2 236.5
08/05 00:10 18.1 43 6.64 5.3 26 32 1018.8 0 15.2 22.0 30.8 80.3 69.9 239.2
08/05 00:00 18.3 43 6.72 5.5 28 39 1019 0 15.4 22.1 31.0 80.9 70.7 241.9
07/05 23:50 18.4 43 6.76 5.6 28 33 1019.1 0 15.5 22.1 31.1 81.2 71.1 243.2
07/05 23:40 18.6 43 6.84 5.8 26 30 1019 0 15.6 22.2 31.3 81.7 71.8 245.9
07/05 23:30 18.7 43 6.88 5.9 22 43 1019.2 0 15.7 22.2 31.4 82.0 72.2 247.2
07/05 23:20 18.7 43 6.88 5.9 17 19 1019.1 0 15.7 22.2 31.4 82.0 72.2 247.2
07/05 23:10 18.9 43 6.97 6.1 20 24 1019.3 0 15.9 22.3 31.7 82.7 73.1 250.3
07/05 23:00 19 44 7.17 6.5 22 32 1019.3 0 16.3 22.5 32.3 84.5 75.3 258.2
07/05 22:50 19 44 7.17 6.5 24 28 1019.1 0 16.3 22.5 32.3 84.5 75.3 258.2
07/05 22:40 19.3 44 7.3 6.8 24 28 1019.1 0 16.6 22.6 32.7 85.4 76.6 262.6
07/05 22:30 19.2 45 7.42 7 24 35 1019.2 0 16.8 22.8 33.1 86.6 78.1 267.9
07/05 22:20 19.4 45 7.51 7.2 24 33 1019.2 0 17.0 22.9 33.4 87.3 78.9 270.9
07/05 22:10 19.4 45 7.51 7.2 20 26 1019.3 0 17.0 22.9 33.4 87.3 78.9 271.0
07/05 22:00 19.5 45 7.55 7.3 24 35 1019.2 0 17.1 23.0 33.5 87.6 79.3 272.3
07/05 21:50 19.4 46 7.67 7.5 24 30 1019.3 0 17.4 23.2 34.0 88.8 80.8 277.6
07/05 21:40 19.6 45 7.6 7.4 26 28 1019.3 0 17.2 23.0 33.6 87.9 79.8 274.0
07/05 21:30 19.6 46 7.76 7.7 20 30 1019.3 0 17.5 23.2 34.2 89.5 81.7 280.7
07/05 21:20 19.7 46 7.81 7.8 24 30 1019.4 0 17.6 23.3 34.3 89.9 82.2 282.4
07/05 21:10 19.8 46 7.86 7.9 24 30 1019.4 0 17.7 23.3 34.5 90.2 82.7 284.2
07/05 21:00 19.6 47 7.93 8 19 26 1019.1 0 17.9 23.5 34.8 91.1 83.7 287.7
07/05 20:50 19.6 47 7.93 8 20 24 1019.2 0 17.9 23.5 34.8 91.1 83.7 287.8
07/05 20:40 19.8 47 8.03 8.2 22 26 1019 0 18.1 23.6 35.1 91.8 84.7 291.2
07/05 20:30 19.9 47 8.07 8.3 17 22 1018.9 0 18.2 23.6 35.2 92.1 85.1 292.5
07/05 20:20 19.9 47 8.07 8.3 17 20 1018.8 0 18.2 23.6 35.2 92.1 85.1 292.5
07/05 20:10 20 46 7.95 8 17 20 1018.7 0 17.9 23.4 34.7 90.8 83.5 287.1
07/05 20:00 20.1 46 8 8.1 17 20 1018.7 0 18.0 23.4 34.8 91.2 84.0 288.8
07/05 19:50 20.2 46 8.04 8.2 17 20 1018.7 0 18.1 23.5 34.9 91.5 84.4 290.1
07/05 19:40 20.2 45 7.87 7.9 19 20 1018.4 0 17.7 23.2 34.3 89.8 82.3 282.9
07/05 19:30 20.4 45 7.96 8.1 17 24 1018.2 0 17.9 23.3 34.5 90.4 83.2 285.9

Last Refresh: 08-May-2026 12:09:24

Bureau of Meteorology